sensor_id;sensor_type;location;lat;lon;timestamp;temperature;humidity
5901;DHT22;2976;49.764;9.796;2024-03-08T00:00:43;0.00;99.90
5901;DHT22;2976;49.764;9.796;2024-03-08T00:03:11;0.00;99.90
5901;DHT22;2976;49.764;9.796;2024-03-08T00:05:36;0.00;99.90
5901;DHT22;2976;49.764;9.796;2024-03-08T00:08:04;0.00;99.90
5901;DHT22;2976;49.764;9.796;2024-03-08T00:10:30;0.00;99.90
5901;DHT22;2976;49.764;9.796;2024-03-08T00:12:55;0.00;1.00
5901;DHT22;2976;49.764;9.796;2024-03-08T00:15:23;0.00;1.00
5901;DHT22;2976;49.764;9.796;2024-03-08T00:17:48;0.10;1.00
5901;DHT22;2976;49.764;9.796;2024-03-08T00:20:14;0.10;1.00
5901;DHT22;2976;49.764;9.796;2024-03-08T00:22:40;0.10;1.00
5901;DHT22;2976;49.764;9.796;2024-03-08T00:25:07;0.00;1.00
5901;DHT22;2976;49.764;9.796;2024-03-08T00:27:36;0.00;1.00
5901;DHT22;2976;49.764;9.796;2024-03-08T00:30:02;0.10;1.00
5901;DHT22;2976;49.764;9.796;2024-03-08T00:32:27;0.00;1.00
5901;DHT22;2976;49.764;9.796;2024-03-08T00:34:54;0.00;1.00
5901;DHT22;2976;49.764;9.796;2024-03-08T00:37:20;-0.10;1.00
5901;DHT22;2976;49.764;9.796;2024-03-08T00:39:47;-0.20;1.00
5901;DHT22;2976;49.764;9.796;2024-03-08T00:42:13;-0.20;1.00
5901;DHT22;2976;49.764;9.796;2024-03-08T00:44:39;-0.20;1.00
5901;DHT22;2976;49.764;9.796;2024-03-08T00:47:05;-0.20;1.00
5901;DHT22;2976;49.764;9.796;2024-03-08T00:49:31;-0.30;1.00
5901;DHT22;2976;49.764;9.796;2024-03-08T00:51:56;-0.30;1.00
5901;DHT22;2976;49.764;9.796;2024-03-08T00:54:22;-0.30;1.00
5901;DHT22;2976;49.764;9.796;2024-03-08T00:56:47;-0.40;1.00
5901;DHT22;2976;49.764;9.796;2024-03-08T00:59:13;-0.40;1.00
5901;DHT22;2976;49.764;9.796;2024-03-08T01:01:40;-0.40;26.40
5901;DHT22;2976;49.764;9.796;2024-03-08T01:04:06;-0.40;24.20
5901;DHT22;2976;49.764;9.796;2024-03-08T01:06:32;-0.40;86.00
5901;DHT22;2976;49.764;9.796;2024-03-08T01:08:58;-0.50;37.20
5901;DHT22;2976;49.764;9.796;2024-03-08T01:11:24;-0.50;99.90
5901;DHT22;2976;49.764;9.796;2024-03-08T01:13:49;-0.60;99.90
5901;DHT22;2976;49.764;9.796;2024-03-08T01:16:15;-0.60;99.90
5901;DHT22;2976;49.764;9.796;2024-03-08T01:18:42;-0.60;99.90
5901;DHT22;2976;49.764;9.796;2024-03-08T01:21:08;-0.60;99.90
5901;DHT22;2976;49.764;9.796;2024-03-08T01:23:33;-0.60;99.90
5901;DHT22;2976;49.764;9.796;2024-03-08T01:26:00;-0.70;99.90
5901;DHT22;2976;49.764;9.796;2024-03-08T01:28:27;-0.70;99.90
5901;DHT22;2976;49.764;9.796;2024-03-08T01:30:53;-0.70;99.90
5901;DHT22;2976;49.764;9.796;2024-03-08T01:33:26;-0.80;99.90
5901;DHT22;2976;49.764;9.796;2024-03-08T01:35:57;-0.90;99.90
5901;DHT22;2976;49.764;9.796;2024-03-08T01:38:22;-1.00;99.90
5901;DHT22;2976;49.764;9.796;2024-03-08T01:40:49;-1.10;99.90
5901;DHT22;2976;49.764;9.796;2024-03-08T01:43:30;-1.10;1.00
5901;DHT22;2976;49.764;9.796;2024-03-08T01:45:59;-1.20;1.00
5901;DHT22;2976;49.764;9.796;2024-03-08T01:48:28;-1.20;1.00
5901;DHT22;2976;49.764;9.796;2024-03-08T01:50:56;-1.30;1.00
5901;DHT22;2976;49.764;9.796;2024-03-08T01:53:25;-1.30;1.00
5901;DHT22;2976;49.764;9.796;2024-03-08T01:55:55;-1.40;1.00
5901;DHT22;2976;49.764;9.796;2024-03-08T01:58:22;-1.40;1.00
5901;DHT22;2976;49.764;9.796;2024-03-08T02:00:50;-1.40;1.00
5901;DHT22;2976;49.764;9.796;2024-03-08T02:03:16;-1.40;1.00
5901;DHT22;2976;49.764;9.796;2024-03-08T02:05:42;-1.40;1.00
5901;DHT22;2976;49.764;9.796;2024-03-08T02:08:09;-1.40;1.00
5901;DHT22;2976;49.764;9.796;2024-03-08T02:10:40;-1.40;1.00
5901;DHT22;2976;49.764;9.796;2024-03-08T02:13:07;-1.30;1.00
5901;DHT22;2976;49.764;9.796;2024-03-08T02:15:58;-1.30;1.00
5901;DHT22;2976;49.764;9.796;2024-03-08T02:18:28;-1.20;1.00
5901;DHT22;2976;49.764;9.796;2024-03-08T02:20:55;-1.20;1.00
5901;DHT22;2976;49.764;9.796;2024-03-08T02:23:21;-1.20;1.00
5901;DHT22;2976;49.764;9.796;2024-03-08T02:25:48;-1.20;1.00
5901;DHT22;2976;49.764;9.796;2024-03-08T02:28:16;-1.30;1.00
5901;DHT22;2976;49.764;9.796;2024-03-08T02:30:44;-1.30;1.00
5901;DHT22;2976;49.764;9.796;2024-03-08T02:33:09;-1.40;1.00
5901;DHT22;2976;49.764;9.796;2024-03-08T02:35:35;-1.50;1.00
5901;DHT22;2976;49.764;9.796;2024-03-08T02:38:02;-1.50;1.00
5901;DHT22;2976;49.764;9.796;2024-03-08T02:40:29;-1.60;1.00
5901;DHT22;2976;49.764;9.796;2024-03-08T02:43:04;-1.60;1.00
5901;DHT22;2976;49.764;9.796;2024-03-08T02:45:30;-1.70;1.00
5901;DHT22;2976;49.764;9.796;2024-03-08T02:47:56;-1.80;1.00
5901;DHT22;2976;49.764;9.796;2024-03-08T02:50:21;-1.70;18.20
5901;DHT22;2976;49.764;9.796;2024-03-08T02:52:48;-1.70;64.30
5901;DHT22;2976;49.764;9.796;2024-03-08T02:55:13;-1.80;40.00
5901;DHT22;2976;49.764;9.796;2024-03-08T02:57:42;-1.80;42.80
5901;DHT22;2976;49.764;9.796;2024-03-08T03:00:09;-1.80;91.00
5901;DHT22;2976;49.764;9.796;2024-03-08T03:02:35;-1.80;94.30
5901;DHT22;2976;49.764;9.796;2024-03-08T03:05:03;-1.80;99.90
5901;DHT22;2976;49.764;9.796;2024-03-08T03:07:32;-1.80;99.90
5901;DHT22;2976;49.764;9.796;2024-03-08T03:09:59;-1.80;99.90
5901;DHT22;2976;49.764;9.796;2024-03-08T03:12:26;-1.90;99.90
5901;DHT22;2976;49.764;9.796;2024-03-08T03:14:52;-1.90;99.90
5901;DHT22;2976;49.764;9.796;2024-03-08T03:17:17;-1.90;99.90
5901;DHT22;2976;49.764;9.796;2024-03-08T03:19:43;-1.90;99.90
5901;DHT22;2976;49.764;9.796;2024-03-08T03:22:08;-1.90;99.90
5901;DHT22;2976;49.764;9.796;2024-03-08T03:24:38;-1.90;99.90
5901;DHT22;2976;49.764;9.796;2024-03-08T03:27:04;-1.90;99.90
5901;DHT22;2976;49.764;9.796;2024-03-08T03:29:42;-1.90;99.90
5901;DHT22;2976;49.764;9.796;2024-03-08T03:32:14;-1.90;99.90
5901;DHT22;2976;49.764;9.796;2024-03-08T03:34:40;-1.90;99.90
5901;DHT22;2976;49.764;9.796;2024-03-08T03:37:06;-1.90;99.90
5901;DHT22;2976;49.764;9.796;2024-03-08T03:39:34;-1.80;99.90
5901;DHT22;2976;49.764;9.796;2024-03-08T03:42:02;-1.90;99.90
5901;DHT22;2976;49.764;9.796;2024-03-08T03:44:28;-1.90;99.90
5901;DHT22;2976;49.764;9.796;2024-03-08T03:46:54;-1.90;99.90
5901;DHT22;2976;49.764;9.796;2024-03-08T03:49:20;-1.90;99.90
5901;DHT22;2976;49.764;9.796;2024-03-08T03:51:46;-1.90;99.90
5901;DHT22;2976;49.764;9.796;2024-03-08T03:54:12;-1.90;99.90
5901;DHT22;2976;49.764;9.796;2024-03-08T03:56:38;-1.80;99.90
5901;DHT22;2976;49.764;9.796;2024-03-08T03:59:05;-1.80;99.90
5901;DHT22;2976;49.764;9.796;2024-03-08T04:01:32;-1.60;99.90
5901;DHT22;2976;49.764;9.796;2024-03-08T04:03:57;-1.60;99.90
5901;DHT22;2976;49.764;9.796;2024-03-08T04:06:23;-1.60;99.90
5901;DHT22;2976;49.764;9.796;2024-03-08T04:08:49;-1.40;99.90
5901;DHT22;2976;49.764;9.796;2024-03-08T04:11:15;-1.40;99.90
5901;DHT22;2976;49.764;9.796;2024-03-08T04:13:43;-1.40;99.90
5901;DHT22;2976;49.764;9.796;2024-03-08T04:16:08;-1.40;99.90
5901;DHT22;2976;49.764;9.796;2024-03-08T04:18:34;-1.40;99.90
5901;DHT22;2976;49.764;9.796;2024-03-08T04:21:06;-1.40;99.90
5901;DHT22;2976;49.764;9.796;2024-03-08T04:23:33;-1.50;99.90
5901;DHT22;2976;49.764;9.796;2024-03-08T04:26:01;-1.50;99.90
5901;DHT22;2976;49.764;9.796;2024-03-08T04:28:27;-1.60;99.90
5901;DHT22;2976;49.764;9.796;2024-03-08T04:30:52;-1.60;99.90
5901;DHT22;2976;49.764;9.796;2024-03-08T04:33:18;-1.60;99.90
5901;DHT22;2976;49.764;9.796;2024-03-08T04:35:44;-1.60;99.90
5901;DHT22;2976;49.764;9.796;2024-03-08T04:38:11;-1.70;99.90
5901;DHT22;2976;49.764;9.796;2024-03-08T04:40:36;-1.80;99.90
5901;DHT22;2976;49.764;9.796;2024-03-08T04:43:02;-1.60;99.90
5901;DHT22;2976;49.764;9.796;2024-03-08T04:45:28;-1.60;99.90
5901;DHT22;2976;49.764;9.796;2024-03-08T04:47:53;-1.50;99.90
5901;DHT22;2976;49.764;9.796;2024-03-08T04:50:19;-1.50;99.90
5901;DHT22;2976;49.764;9.796;2024-03-08T04:52:44;-1.50;99.90
5901;DHT22;2976;49.764;9.796;2024-03-08T04:55:10;-1.50;99.90
5901;DHT22;2976;49.764;9.796;2024-03-08T04:57:36;-1.60;99.90
5901;DHT22;2976;49.764;9.796;2024-03-08T05:00:04;-1.70;99.90
5901;DHT22;2976;49.764;9.796;2024-03-08T05:02:37;-1.70;99.90
5901;DHT22;2976;49.764;9.796;2024-03-08T05:05:05;-1.70;99.90
5901;DHT22;2976;49.764;9.796;2024-03-08T05:07:31;-1.60;99.90
5901;DHT22;2976;49.764;9.796;2024-03-08T05:10:00;-1.70;99.90
5901;DHT22;2976;49.764;9.796;2024-03-08T05:12:27;-1.70;99.90
5901;DHT22;2976;49.764;9.796;2024-03-08T05:14:53;-1.80;99.90
5901;DHT22;2976;49.764;9.796;2024-03-08T05:17:19;-1.70;99.90
5901;DHT22;2976;49.764;9.796;2024-03-08T05:19:44;-1.80;99.90
5901;DHT22;2976;49.764;9.796;2024-03-08T05:22:10;-1.90;99.90
5901;DHT22;2976;49.764;9.796;2024-03-08T05:24:36;-1.90;99.90
5901;DHT22;2976;49.764;9.796;2024-03-08T05:27:01;-1.90;99.90
5901;DHT22;2976;49.764;9.796;2024-03-08T05:29:29;-1.80;99.90
5901;DHT22;2976;49.764;9.796;2024-03-08T05:31:55;-1.80;99.90
5901;DHT22;2976;49.764;9.796;2024-03-08T05:34:21;-1.80;99.90
5901;DHT22;2976;49.764;9.796;2024-03-08T05:36:47;-1.90;99.90
5901;DHT22;2976;49.764;9.796;2024-03-08T05:39:15;-1.80;99.90
5901;DHT22;2976;49.764;9.796;2024-03-08T05:41:44;-1.90;99.90
5901;DHT22;2976;49.764;9.796;2024-03-08T05:44:11;-1.80;99.90
5901;DHT22;2976;49.764;9.796;2024-03-08T05:46:37;-1.80;99.90
5901;DHT22;2976;49.764;9.796;2024-03-08T05:49:03;-1.80;99.90
5901;DHT22;2976;49.764;9.796;2024-03-08T05:51:36;-1.90;99.90
5901;DHT22;2976;49.764;9.796;2024-03-08T05:54:12;-1.90;99.90
5901;DHT22;2976;49.764;9.796;2024-03-08T05:56:38;-1.80;99.90
5901;DHT22;2976;49.764;9.796;2024-03-08T05:59:08;-1.90;99.90
5901;DHT22;2976;49.764;9.796;2024-03-08T06:01:35;-1.80;99.90
5901;DHT22;2976;49.764;9.796;2024-03-08T06:04:02;-1.70;99.90
5901;DHT22;2976;49.764;9.796;2024-03-08T06:06:28;-1.70;99.90
5901;DHT22;2976;49.764;9.796;2024-03-08T06:08:54;-1.70;99.90
5901;DHT22;2976;49.764;9.796;2024-03-08T06:11:22;-1.60;99.90
5901;DHT22;2976;49.764;9.796;2024-03-08T06:13:48;-1.60;99.90
5901;DHT22;2976;49.764;9.796;2024-03-08T06:16:14;-1.60;99.90
5901;DHT22;2976;49.764;9.796;2024-03-08T06:18:40;-1.60;99.90
5901;DHT22;2976;49.764;9.796;2024-03-08T06:21:07;-1.50;99.90
5901;DHT22;2976;49.764;9.796;2024-03-08T06:23:33;-1.40;99.90
5901;DHT22;2976;49.764;9.796;2024-03-08T06:25:59;-1.30;99.90
5901;DHT22;2976;49.764;9.796;2024-03-08T06:28:24;-1.30;99.90
5901;DHT22;2976;49.764;9.796;2024-03-08T06:30:50;-1.10;99.90
5901;DHT22;2976;49.764;9.796;2024-03-08T06:33:17;-1.00;99.90
5901;DHT22;2976;49.764;9.796;2024-03-08T06:35:43;-1.00;99.90
5901;DHT22;2976;49.764;9.796;2024-03-08T06:38:08;-0.90;99.90
5901;DHT22;2976;49.764;9.796;2024-03-08T06:40:34;-0.80;99.90
5901;DHT22;2976;49.764;9.796;2024-03-08T06:43:00;-0.60;99.90
5901;DHT22;2976;49.764;9.796;2024-03-08T06:45:25;-0.20;99.90
5901;DHT22;2976;49.764;9.796;2024-03-08T06:47:53;0.00;99.90
5901;DHT22;2976;49.764;9.796;2024-03-08T06:50:20;0.40;71.10
5901;DHT22;2976;49.764;9.796;2024-03-08T06:52:45;0.70;1.00
5901;DHT22;2976;49.764;9.796;2024-03-08T06:55:16;0.90;1.00
5901;DHT22;2976;49.764;9.796;2024-03-08T06:57:42;1.20;1.00
5901;DHT22;2976;49.764;9.796;2024-03-08T07:00:08;1.40;1.00
5901;DHT22;2976;49.764;9.796;2024-03-08T07:02:46;1.70;99.90
5901;DHT22;2976;49.764;9.796;2024-03-08T07:05:14;1.90;99.90
5901;DHT22;2976;49.764;9.796;2024-03-08T07:07:40;2.20;1.00
5901;DHT22;2976;49.764;9.796;2024-03-08T07:10:07;2.40;1.00
5901;DHT22;2976;49.764;9.796;2024-03-08T07:12:39;2.60;1.00
5901;DHT22;2976;49.764;9.796;2024-03-08T07:15:05;2.70;1.00
5901;DHT22;2976;49.764;9.796;2024-03-08T07:17:31;2.90;1.00
5901;DHT22;2976;49.764;9.796;2024-03-08T07:19:59;3.00;62.50
5901;DHT22;2976;49.764;9.796;2024-03-08T07:22:32;3.00;91.10
5901;DHT22;2976;49.764;9.796;2024-03-08T07:24:58;3.10;1.00
5901;DHT22;2976;49.764;9.796;2024-03-08T07:27:43;3.30;99.90
5901;DHT22;2976;49.764;9.796;2024-03-08T07:30:09;3.30;1.00
5901;DHT22;2976;49.764;9.796;2024-03-08T07:32:37;3.50;88.70
5901;DHT22;2976;49.764;9.796;2024-03-08T07:35:03;3.60;1.00
5901;DHT22;2976;49.764;9.796;2024-03-08T07:37:29;3.60;1.00
5901;DHT22;2976;49.764;9.796;2024-03-08T07:39:55;3.60;99.90
5901;DHT22;2976;49.764;9.796;2024-03-08T07:42:20;3.70;99.90
5901;DHT22;2976;49.764;9.796;2024-03-08T07:44:47;3.90;99.90
5901;DHT22;2976;49.764;9.796;2024-03-08T07:47:13;4.00;99.90
5901;DHT22;2976;49.764;9.796;2024-03-08T07:49:39;3.90;99.90
5901;DHT22;2976;49.764;9.796;2024-03-08T07:52:05;3.80;99.90
5901;DHT22;2976;49.764;9.796;2024-03-08T07:54:33;3.80;99.90
5901;DHT22;2976;49.764;9.796;2024-03-08T07:56:59;3.70;1.00
5901;DHT22;2976;49.764;9.796;2024-03-08T07:59:24;3.60;1.00
5901;DHT22;2976;49.764;9.796;2024-03-08T08:01:50;3.80;1.00
5901;DHT22;2976;49.764;9.796;2024-03-08T08:04:15;4.00;1.00
5901;DHT22;2976;49.764;9.796;2024-03-08T08:06:43;4.00;99.90
5901;DHT22;2976;49.764;9.796;2024-03-08T08:09:09;4.30;1.00
5901;DHT22;2976;49.764;9.796;2024-03-08T08:11:41;4.50;1.00
5901;DHT22;2976;49.764;9.796;2024-03-08T08:14:09;4.40;93.70
5901;DHT22;2976;49.764;9.796;2024-03-08T08:16:35;4.60;31.90
5901;DHT22;2976;49.764;9.796;2024-03-08T08:19:02;5.00;1.00
5901;DHT22;2976;49.764;9.796;2024-03-08T08:21:35;4.90;99.90
5901;DHT22;2976;49.764;9.796;2024-03-08T08:24:05;5.20;93.60
5901;DHT22;2976;49.764;9.796;2024-03-08T08:26:31;5.50;1.00
5901;DHT22;2976;49.764;9.796;2024-03-08T08:28:59;5.20;1.00
5901;DHT22;2976;49.764;9.796;2024-03-08T08:31:25;5.50;99.90
5901;DHT22;2976;49.764;9.796;2024-03-08T08:33:51;5.50;1.00
5901;DHT22;2976;49.764;9.796;2024-03-08T08:36:23;5.70;99.90
5901;DHT22;2976;49.764;9.796;2024-03-08T08:38:48;5.80;69.10
5901;DHT22;2976;49.764;9.796;2024-03-08T08:41:14;6.00;1.00
5901;DHT22;2976;49.764;9.796;2024-03-08T08:43:41;5.90;99.90
5901;DHT22;2976;49.764;9.796;2024-03-08T08:46:10;5.90;1.00
5901;DHT22;2976;49.764;9.796;2024-03-08T08:48:39;5.70;99.90
5901;DHT22;2976;49.764;9.796;2024-03-08T08:51:09;5.70;99.90
5901;DHT22;2976;49.764;9.796;2024-03-08T08:53:41;6.20;1.00
5901;DHT22;2976;49.764;9.796;2024-03-08T08:56:12;6.20;99.90
5901;DHT22;2976;49.764;9.796;2024-03-08T08:58:41;6.20;1.00
5901;DHT22;2976;49.764;9.796;2024-03-08T09:01:08;6.30;1.00
5901;DHT22;2976;49.764;9.796;2024-03-08T09:03:35;6.40;99.90
5901;DHT22;2976;49.764;9.796;2024-03-08T09:06:05;6.20;99.90
5901;DHT22;2976;49.764;9.796;2024-03-08T09:08:31;6.30;1.00
5901;DHT22;2976;49.764;9.796;2024-03-08T09:10:56;6.50;99.90
5901;DHT22;2976;49.764;9.796;2024-03-08T09:13:22;6.50;99.90
5901;DHT22;2976;49.764;9.796;2024-03-08T09:15:48;6.90;99.90
5901;DHT22;2976;49.764;9.796;2024-03-08T09:18:16;7.00;23.90
5901;DHT22;2976;49.764;9.796;2024-03-08T09:20:42;7.00;96.90
5901;DHT22;2976;49.764;9.796;2024-03-08T09:23:07;7.30;1.00
5901;DHT22;2976;49.764;9.796;2024-03-08T09:25:33;7.40;1.00
5901;DHT22;2976;49.764;9.796;2024-03-08T09:27:59;7.60;1.00
5901;DHT22;2976;49.764;9.796;2024-03-08T09:30:25;7.80;1.00
5901;DHT22;2976;49.764;9.796;2024-03-08T09:32:50;8.00;1.00
5901;DHT22;2976;49.764;9.796;2024-03-08T09:35:16;8.30;99.90
5901;DHT22;2976;49.764;9.796;2024-03-08T09:37:42;8.50;99.90
5901;DHT22;2976;49.764;9.796;2024-03-08T09:40:08;8.20;99.90
5901;DHT22;2976;49.764;9.796;2024-03-08T09:42:41;8.30;99.90
5901;DHT22;2976;49.764;9.796;2024-03-08T09:45:11;7.80;99.90
5901;DHT22;2976;49.764;9.796;2024-03-08T09:47:42;7.70;99.90
5901;DHT22;2976;49.764;9.796;2024-03-08T09:50:08;7.70;99.90
5901;DHT22;2976;49.764;9.796;2024-03-08T09:52:38;7.80;99.90
5901;DHT22;2976;49.764;9.796;2024-03-08T09:55:07;7.80;99.90
5901;DHT22;2976;49.764;9.796;2024-03-08T09:57:36;7.40;99.90
5901;DHT22;2976;49.764;9.796;2024-03-08T10:00:03;6.80;99.90
5901;DHT22;2976;49.764;9.796;2024-03-08T10:02:37;7.00;1.00
5901;DHT22;2976;49.764;9.796;2024-03-08T10:05:03;7.30;1.00
5901;DHT22;2976;49.764;9.796;2024-03-08T10:07:29;7.70;1.00
5901;DHT22;2976;49.764;9.796;2024-03-08T10:09:57;8.10;99.90
5901;DHT22;2976;49.764;9.796;2024-03-08T10:12:22;8.30;99.90
5901;DHT22;2976;49.764;9.796;2024-03-08T10:14:48;8.20;99.90
5901;DHT22;2976;49.764;9.796;2024-03-08T10:17:13;8.10;99.90
5901;DHT22;2976;49.764;9.796;2024-03-08T10:19:39;8.20;99.90
5901;DHT22;2976;49.764;9.796;2024-03-08T10:22:15;8.60;99.90
5901;DHT22;2976;49.764;9.796;2024-03-08T10:24:41;8.60;99.90
5901;DHT22;2976;49.764;9.796;2024-03-08T10:27:06;8.60;99.90
5901;DHT22;2976;49.764;9.796;2024-03-08T10:29:32;8.80;99.90
5901;DHT22;2976;49.764;9.796;2024-03-08T10:31:58;9.00;99.90
5901;DHT22;2976;49.764;9.796;2024-03-08T10:34:25;9.30;99.90
5901;DHT22;2976;49.764;9.796;2024-03-08T10:36:51;9.00;99.90
5901;DHT22;2976;49.764;9.796;2024-03-08T10:41:52;9.20;99.90
5901;DHT22;2976;49.764;9.796;2024-03-08T10:44:26;9.10;99.90
5901;DHT22;2976;49.764;9.796;2024-03-08T10:47:01;9.20;99.90
5901;DHT22;2976;49.764;9.796;2024-03-08T10:49:38;9.20;99.90
5901;DHT22;2976;49.764;9.796;2024-03-08T10:52:04;9.10;99.90
5901;DHT22;2976;49.764;9.796;2024-03-08T10:54:34;8.80;93.30
5901;DHT22;2976;49.764;9.796;2024-03-08T10:57:05;8.70;99.90
5901;DHT22;2976;49.764;9.796;2024-03-08T10:59:32;9.00;99.90
5901;DHT22;2976;49.764;9.796;2024-03-08T11:01:59;9.20;99.90
5901;DHT22;2976;49.764;9.796;2024-03-08T11:04:25;9.30;99.90
5901;DHT22;2976;49.764;9.796;2024-03-08T11:06:51;9.40;90.70
5901;DHT22;2976;49.764;9.796;2024-03-08T11:09:34;9.20;77.30
5901;DHT22;2976;49.764;9.796;2024-03-08T11:12:19;9.00;99.60
5901;DHT22;2976;49.764;9.796;2024-03-08T11:14:47;9.00;99.90
5901;DHT22;2976;49.764;9.796;2024-03-08T11:17:21;9.00;97.60
5901;DHT22;2976;49.764;9.796;2024-03-08T11:19:50;8.90;97.90
5901;DHT22;2976;49.764;9.796;2024-03-08T11:22:28;8.80;99.90
5901;DHT22;2976;49.764;9.796;2024-03-08T11:25:02;8.90;99.90
5901;DHT22;2976;49.764;9.796;2024-03-08T11:27:30;8.70;99.90
5901;DHT22;2976;49.764;9.796;2024-03-08T11:30:00;8.70;99.90
5901;DHT22;2976;49.764;9.796;2024-03-08T11:32:35;9.00;99.90
5901;DHT22;2976;49.764;9.796;2024-03-08T11:35:02;9.10;99.90
5901;DHT22;2976;49.764;9.796;2024-03-08T11:37:34;9.10;99.90
5901;DHT22;2976;49.764;9.796;2024-03-08T11:40:06;9.30;99.90
5901;DHT22;2976;49.764;9.796;2024-03-08T11:42:37;9.30;99.90
5901;DHT22;2976;49.764;9.796;2024-03-08T11:45:08;9.30;99.90
5901;DHT22;2976;49.764;9.796;2024-03-08T11:47:35;9.30;99.90
5901;DHT22;2976;49.764;9.796;2024-03-08T11:50:00;9.50;99.90
5901;DHT22;2976;49.764;9.796;2024-03-08T11:52:28;9.50;86.90
5901;DHT22;2976;49.764;9.796;2024-03-08T11:54:55;9.10;79.30
5901;DHT22;2976;49.764;9.796;2024-03-08T11:57:24;9.20;80.60
5901;DHT22;2976;49.764;9.796;2024-03-08T11:59:54;9.30;99.90
5901;DHT22;2976;49.764;9.796;2024-03-08T12:02:20;9.20;65.10
5901;DHT22;2976;49.764;9.796;2024-03-08T12:04:59;9.00;90.20
5901;DHT22;2976;49.764;9.796;2024-03-08T12:07:42;9.30;99.00
5901;DHT22;2976;49.764;9.796;2024-03-08T12:10:22;9.40;99.90
5901;DHT22;2976;49.764;9.796;2024-03-08T12:12:49;9.30;98.40
5901;DHT22;2976;49.764;9.796;2024-03-08T12:15:17;9.50;99.90
5901;DHT22;2976;49.764;9.796;2024-03-08T12:17:44;9.80;99.40
5901;DHT22;2976;49.764;9.796;2024-03-08T12:20:18;9.80;91.90
5901;DHT22;2976;49.764;9.796;2024-03-08T12:22:47;9.80;89.70
5901;DHT22;2976;49.764;9.796;2024-03-08T12:25:13;9.80;41.00
5901;DHT22;2976;49.764;9.796;2024-03-08T12:27:40;9.70;88.30
5901;DHT22;2976;49.764;9.796;2024-03-08T12:30:23;9.50;50.00
5901;DHT22;2976;49.764;9.796;2024-03-08T12:32:52;9.40;64.10
5901;DHT22;2976;49.764;9.796;2024-03-08T12:35:28;9.30;48.80
5901;DHT22;2976;49.764;9.796;2024-03-08T12:37:59;9.40;41.10
5901;DHT22;2976;49.764;9.796;2024-03-08T12:40:28;9.40;50.40
5901;DHT22;2976;49.764;9.796;2024-03-08T12:42:57;9.30;46.50
5901;DHT22;2976;49.764;9.796;2024-03-08T12:45:23;9.20;48.40
5901;DHT22;2976;49.764;9.796;2024-03-08T12:47:50;9.20;51.20
5901;DHT22;2976;49.764;9.796;2024-03-08T12:50:17;9.30;36.90
5901;DHT22;2976;49.764;9.796;2024-03-08T12:52:43;9.40;39.70
5901;DHT22;2976;49.764;9.796;2024-03-08T12:55:09;9.50;38.50
5901;DHT22;2976;49.764;9.796;2024-03-08T12:57:38;9.60;54.70
5901;DHT22;2976;49.764;9.796;2024-03-08T13:00:04;9.50;1.20
5901;DHT22;2976;49.764;9.796;2024-03-08T13:02:33;9.50;20.80
5901;DHT22;2976;49.764;9.796;2024-03-08T13:04:58;9.50;9.10
5901;DHT22;2976;49.764;9.796;2024-03-08T13:07:24;9.70;20.20
5901;DHT22;2976;49.764;9.796;2024-03-08T13:09:53;9.70;1.00
5901;DHT22;2976;49.764;9.796;2024-03-08T13:12:22;9.70;1.00
5901;DHT22;2976;49.764;9.796;2024-03-08T13:14:49;9.70;1.00
5901;DHT22;2976;49.764;9.796;2024-03-08T13:17:15;9.70;1.00
5901;DHT22;2976;49.764;9.796;2024-03-08T13:19:40;9.70;1.00
5901;DHT22;2976;49.764;9.796;2024-03-08T13:22:08;9.80;1.00
5901;DHT22;2976;49.764;9.796;2024-03-08T13:24:41;9.80;1.00
5901;DHT22;2976;49.764;9.796;2024-03-08T13:27:07;9.70;1.00
5901;DHT22;2976;49.764;9.796;2024-03-08T13:29:45;9.80;1.00
5901;DHT22;2976;49.764;9.796;2024-03-08T13:32:12;9.80;1.00
5901;DHT22;2976;49.764;9.796;2024-03-08T13:34:44;9.90;1.00
5901;DHT22;2976;49.764;9.796;2024-03-08T13:37:10;10.00;1.00
5901;DHT22;2976;49.764;9.796;2024-03-08T13:39:37;10.00;1.00
5901;DHT22;2976;49.764;9.796;2024-03-08T13:42:15;10.00;1.00
5901;DHT22;2976;49.764;9.796;2024-03-08T13:44:45;10.00;1.00
5901;DHT22;2976;49.764;9.796;2024-03-08T13:47:16;10.20;1.00
5901;DHT22;2976;49.764;9.796;2024-03-08T13:49:42;10.20;1.00
5901;DHT22;2976;49.764;9.796;2024-03-08T13:52:09;10.20;1.00
5901;DHT22;2976;49.764;9.796;2024-03-08T13:54:36;10.20;1.00
5901;DHT22;2976;49.764;9.796;2024-03-08T13:57:02;10.30;1.00
5901;DHT22;2976;49.764;9.796;2024-03-08T13:59:32;10.30;1.00
5901;DHT22;2976;49.764;9.796;2024-03-08T14:02:02;10.30;1.00
5901;DHT22;2976;49.764;9.796;2024-03-08T14:04:31;10.40;1.00
5901;DHT22;2976;49.764;9.796;2024-03-08T14:06:56;10.40;1.00
5901;DHT22;2976;49.764;9.796;2024-03-08T14:09:25;10.40;1.00
5901;DHT22;2976;49.764;9.796;2024-03-08T14:11:54;10.40;1.00
5901;DHT22;2976;49.764;9.796;2024-03-08T14:14:22;10.40;1.00
5901;DHT22;2976;49.764;9.796;2024-03-08T14:16:50;10.40;1.00
5901;DHT22;2976;49.764;9.796;2024-03-08T14:19:20;10.40;1.00
5901;DHT22;2976;49.764;9.796;2024-03-08T14:21:46;10.40;1.00
5901;DHT22;2976;49.764;9.796;2024-03-08T14:24:15;10.40;1.00
5901;DHT22;2976;49.764;9.796;2024-03-08T14:26:42;10.40;1.00
5901;DHT22;2976;49.764;9.796;2024-03-08T14:29:07;10.40;1.00
5901;DHT22;2976;49.764;9.796;2024-03-08T14:32:08;10.40;1.00
5901;DHT22;2976;49.764;9.796;2024-03-08T14:34:57;10.40;1.00
5901;DHT22;2976;49.764;9.796;2024-03-08T14:37:24;10.30;1.00
5901;DHT22;2976;49.764;9.796;2024-03-08T14:39:56;10.40;1.00
5901;DHT22;2976;49.764;9.796;2024-03-08T14:42:22;10.40;1.00
5901;DHT22;2976;49.764;9.796;2024-03-08T14:44:51;10.50;1.00
5901;DHT22;2976;49.764;9.796;2024-03-08T14:47:18;10.40;1.00
5901;DHT22;2976;49.764;9.796;2024-03-08T14:49:43;10.40;1.00
5901;DHT22;2976;49.764;9.796;2024-03-08T14:52:09;10.40;1.00
5901;DHT22;2976;49.764;9.796;2024-03-08T14:54:53;10.40;1.00
5901;DHT22;2976;49.764;9.796;2024-03-08T14:57:19;10.40;1.00
5901;DHT22;2976;49.764;9.796;2024-03-08T14:59:44;10.30;1.00
5901;DHT22;2976;49.764;9.796;2024-03-08T15:02:10;10.40;1.00
5901;DHT22;2976;49.764;9.796;2024-03-08T15:04:36;10.40;1.00
5901;DHT22;2976;49.764;9.796;2024-03-08T15:07:02;10.50;1.00
5901;DHT22;2976;49.764;9.796;2024-03-08T15:09:31;10.50;1.00
5901;DHT22;2976;49.764;9.796;2024-03-08T15:12:08;10.50;1.00
5901;DHT22;2976;49.764;9.796;2024-03-08T15:14:34;10.40;1.00
5901;DHT22;2976;49.764;9.796;2024-03-08T15:17:04;10.40;1.00
5901;DHT22;2976;49.764;9.796;2024-03-08T15:19:36;10.40;1.00
5901;DHT22;2976;49.764;9.796;2024-03-08T15:22:02;10.40;1.00
5901;DHT22;2976;49.764;9.796;2024-03-08T15:24:28;10.40;1.00
5901;DHT22;2976;49.764;9.796;2024-03-08T15:26:53;10.40;1.00
5901;DHT22;2976;49.764;9.796;2024-03-08T15:29:20;10.40;1.00
5901;DHT22;2976;49.764;9.796;2024-03-08T15:31:52;10.30;1.00
5901;DHT22;2976;49.764;9.796;2024-03-08T15:34:19;10.30;1.00
5901;DHT22;2976;49.764;9.796;2024-03-08T15:36:49;10.30;1.00
5901;DHT22;2976;49.764;9.796;2024-03-08T15:39:17;10.30;1.00
5901;DHT22;2976;49.764;9.796;2024-03-08T15:41:42;10.30;1.00
5901;DHT22;2976;49.764;9.796;2024-03-08T15:44:09;10.20;1.00
5901;DHT22;2976;49.764;9.796;2024-03-08T15:46:37;10.20;1.00
5901;DHT22;2976;49.764;9.796;2024-03-08T15:49:05;10.10;1.00
5901;DHT22;2976;49.764;9.796;2024-03-08T15:51:31;10.10;1.00
5901;DHT22;2976;49.764;9.796;2024-03-08T15:53:58;10.10;1.00
5901;DHT22;2976;49.764;9.796;2024-03-08T15:56:24;10.00;1.00
5901;DHT22;2976;49.764;9.796;2024-03-08T15:58:51;10.00;1.00
5901;DHT22;2976;49.764;9.796;2024-03-08T16:01:17;10.00;1.00
5901;DHT22;2976;49.764;9.796;2024-03-08T16:03:43;10.00;1.00
5901;DHT22;2976;49.764;9.796;2024-03-08T16:06:11;10.00;1.00
5901;DHT22;2976;49.764;9.796;2024-03-08T16:08:36;9.90;1.00
5901;DHT22;2976;49.764;9.796;2024-03-08T16:11:05;9.90;1.00
5901;DHT22;2976;49.764;9.796;2024-03-08T16:13:34;9.80;1.00
5901;DHT22;2976;49.764;9.796;2024-03-08T16:16:03;9.80;1.00
5901;DHT22;2976;49.764;9.796;2024-03-08T16:18:29;9.80;1.00
5901;DHT22;2976;49.764;9.796;2024-03-08T16:20:56;9.70;1.00
5901;DHT22;2976;49.764;9.796;2024-03-08T16:23:23;9.60;1.00